createdAt,value
2022-08-21T00:01:54.856Z,25.79
2022-08-21T00:04:29.226Z,26.16
2022-08-21T00:06:59.292Z,25.87
2022-08-21T00:09:27.546Z,25.79
2022-08-21T00:11:55.833Z,25.75
2022-08-21T00:14:24.386Z,25.75
2022-08-21T00:16:52.757Z,25.63
2022-08-21T00:19:27.265Z,26.04
2022-08-21T00:21:56.250Z,25.73
2022-08-21T00:24:25.558Z,25.88
2022-08-21T00:26:54.159Z,25.91
2022-08-21T00:29:22.754Z,26.02
2022-08-21T00:31:50.908Z,25.80
2022-08-21T00:34:19.455Z,25.95
2022-08-21T00:36:49.008Z,26.28
2022-08-21T00:39:17.191Z,25.92
2022-08-21T00:41:45.510Z,25.96
2022-08-21T00:44:15.376Z,26.37
2022-08-21T00:46:45.091Z,26.30
2022-08-21T00:49:15.025Z,26.24
2022-08-21T00:51:47.892Z,26.35
2022-08-21T00:54:19.445Z,26.49
2022-08-21T00:56:48.808Z,26.27
2022-08-21T00:59:18.423Z,26.33
2022-08-21T01:01:46.805Z,26.03
2022-08-21T01:04:16.019Z,26.13
2022-08-21T01:06:44.545Z,26.11
2022-08-21T01:09:13.098Z,26.16
2022-08-21T01:11:44.045Z,26.51
2022-08-21T01:14:13.303Z,26.21
2022-08-21T01:16:42.982Z,26.36
2022-08-21T01:19:12.238Z,26.30
2022-08-21T01:21:41.730Z,26.36
2022-08-21T01:24:12.959Z,26.13
2022-08-21T01:26:41.569Z,26.07
2022-08-21T01:29:15.757Z,26.60
2022-08-21T01:31:44.346Z,26.07
2022-08-21T01:34:14.667Z,26.57
2022-08-21T01:36:44.374Z,26.54
2022-08-21T01:39:13.087Z,26.19
2022-08-21T01:41:41.259Z,26.08
2022-08-21T01:44:09.970Z,26.29
2022-08-21T01:46:38.618Z,26.25
2022-08-21T01:49:07.151Z,26.24
2022-08-21T01:51:35.263Z,26.06
2022-08-21T01:54:05.091Z,26.41
2022-08-21T01:56:38.909Z,26.53
2022-08-21T01:59:08.111Z,26.17
2022-08-21T02:01:36.597Z,26.05
2022-08-21T02:04:05.287Z,26.10
2022-08-21T02:06:33.985Z,25.93
2022-08-21T02:09:02.054Z,25.96
2022-08-21T02:11:33.393Z,26.33
2022-08-21T02:14:01.776Z,25.99
2022-08-21T02:16:30.327Z,26.04
2022-08-21T02:18:58.606Z,25.97
2022-08-21T02:21:26.871Z,25.95
2022-08-21T02:23:55.033Z,26.00
2022-08-21T02:26:23.153Z,25.97
2022-08-21T02:28:53.360Z,26.39
2022-08-21T02:31:21.534Z,26.05
2022-08-21T02:33:49.789Z,26.05
2022-08-21T02:36:18.073Z,26.03
2022-08-21T02:38:46.863Z,26.28
2022-08-21T02:41:17.162Z,26.51
2022-08-21T02:43:45.757Z,26.14
2022-08-21T02:46:18.352Z,26.52
2022-08-21T02:48:47.467Z,26.20
2022-08-21T02:51:19.331Z,26.69
2022-08-21T02:53:50.471Z,26.55
2022-08-21T02:56:20.980Z,26.59
2022-08-21T02:58:52.547Z,26.67
2022-08-21T03:01:23.729Z,26.69
2022-08-21T03:03:52.453Z,26.33
2022-08-21T03:06:22.382Z,26.49
2022-08-21T03:08:50.814Z,26.28
2022-08-21T03:11:20.249Z,26.12
2022-08-21T03:13:48.614Z,26.16
2022-08-21T03:16:16.970Z,26.10
2022-08-21T03:18:46.752Z,26.47
2022-08-21T03:21:14.892Z,26.02
2022-08-21T03:23:44.189Z,26.05
2022-08-21T03:26:12.749Z,25.91
2022-08-21T03:28:41.183Z,25.94
2022-08-21T03:31:09.840Z,25.91
2022-08-21T03:33:38.158Z,25.96
2022-08-21T03:36:09.786Z,26.52
2022-08-21T03:38:39.549Z,26.45
2022-08-21T03:41:08.619Z,26.21
2022-08-21T03:43:37.063Z,26.13
2022-08-21T03:46:06.697Z,26.30
2022-08-21T03:48:36.794Z,26.38
2022-08-21T03:51:05.495Z,26.15
2022-08-21T03:53:35.524Z,26.55
2022-08-21T03:56:04.693Z,26.48
2022-08-21T03:58:33.091Z,26.19
2022-08-21T04:01:02.801Z,26.54
2022-08-21T04:03:31.387Z,26.28
2022-08-21T04:06:00.385Z,26.27
2022-08-21T04:08:28.463Z,26.14
2022-08-21T04:10:59.477Z,26.64
2022-08-21T04:13:29.283Z,26.33
2022-08-21T04:15:57.949Z,26.23
2022-08-21T04:18:26.046Z,26.20
2022-08-21T04:20:55.145Z,26.54
2022-08-21T04:23:25.571Z,26.80
2022-08-21T04:25:55.211Z,26.66
2022-08-21T04:28:29.038Z,26.84
2022-08-21T04:30:58.115Z,26.62
2022-08-21T04:33:26.523Z,26.57
2022-08-21T04:35:54.936Z,26.50
2022-08-21T04:38:23.361Z,26.60
2022-08-21T04:40:52.084Z,26.84
2022-08-21T04:43:20.543Z,26.67
2022-08-21T04:45:51.421Z,27.08
2022-08-21T04:48:21.981Z,26.92
2022-08-21T04:50:53.021Z,26.76
2022-08-21T04:53:24.691Z,26.65
2022-08-21T04:55:54.111Z,26.19
2022-08-21T04:58:23.351Z,26.41
2022-08-21T05:00:54.590Z,26.64
2022-08-21T05:03:23.582Z,26.22
2022-08-21T05:05:51.749Z,26.40
2022-08-21T05:08:21.898Z,26.83
2022-08-21T05:10:50.855Z,27.79
2022-08-21T05:13:19.313Z,26.75
2022-08-21T05:15:47.527Z,26.74
2022-08-21T05:18:17.563Z,27.13
2022-08-21T05:20:46.121Z,26.73
2022-08-21T05:23:15.599Z,27.11
2022-08-21T05:25:44.506Z,26.88
2022-08-21T05:28:14.391Z,26.78
2022-08-21T05:30:42.853Z,26.91
2022-08-21T05:33:11.072Z,26.88
2022-08-21T05:35:40.723Z,27.35
2022-08-21T05:38:16.532Z,26.95
2022-08-21T05:40:47.579Z,27.08
2022-08-21T05:43:16.043Z,27.03
2022-08-21T05:45:44.630Z,26.99
2022-08-21T05:48:16.189Z,27.34
2022-08-21T05:50:47.231Z,27.40
2022-08-21T05:53:16.377Z,27.13
2022-08-21T05:55:46.526Z,27.11
2022-08-21T05:58:16.082Z,27.16
2022-08-21T06:00:44.834Z,27.16
2022-08-21T06:03:14.056Z,27.32
2022-08-21T06:05:42.160Z,27.13
2022-08-21T06:08:12.035Z,27.63
2022-08-21T06:10:40.125Z,27.34
2022-08-21T06:13:08.320Z,27.37
2022-08-21T06:15:36.925Z,27.31
2022-08-21T06:18:05.623Z,27.37
2022-08-21T06:20:34.005Z,27.22
2022-08-21T06:23:02.622Z,27.26
2022-08-21T06:25:32.874Z,27.67
2022-08-21T06:28:05.018Z,27.79
2022-08-21T06:30:34.420Z,27.45
2022-08-21T06:33:03.445Z,27.32
2022-08-21T06:35:31.994Z,27.59
2022-08-21T06:38:00.524Z,27.35
2022-08-21T06:40:30.011Z,27.32
2022-08-21T06:43:01.437Z,27.25
2022-08-21T06:45:32.364Z,26.56
2022-08-21T06:48:00.919Z,27.64
2022-08-21T06:50:29.494Z,26.27
2022-08-21T06:53:04.945Z,26.39
2022-08-21T06:55:33.558Z,25.83
2022-08-21T06:58:03.388Z,26.21
2022-08-21T07:00:32.269Z,25.98
2022-08-21T07:03:00.848Z,25.89
2022-08-21T07:05:29.977Z,26.06
2022-08-21T07:07:58.895Z,26.06
2022-08-21T07:10:27.491Z,25.97
2022-08-21T07:13:00.999Z,25.90
2022-08-21T07:15:31.760Z,26.21
2022-08-21T07:18:00.778Z,26.04
2022-08-21T07:20:29.642Z,26.06
2022-08-21T07:22:58.525Z,26.22
2022-08-21T07:25:26.978Z,26.11
2022-08-21T07:27:55.259Z,26.35
2022-08-21T07:30:24.387Z,26.70
2022-08-21T07:32:54.328Z,27.09
2022-08-21T07:35:23.302Z,27.04
2022-08-21T07:37:51.900Z,27.13
2022-08-21T07:40:20.644Z,27.23
2022-08-21T07:42:51.178Z,27.52
2022-08-21T07:45:21.202Z,27.60
2022-08-21T07:47:52.057Z,27.22
2022-08-21T07:50:25.043Z,27.74
2022-08-21T07:52:53.660Z,27.58
2022-08-21T07:55:22.714Z,27.75
2022-08-21T07:57:50.943Z,27.71
2022-08-21T08:00:22.046Z,28.46
2022-08-21T08:02:52.368Z,28.91
2022-08-21T08:05:23.227Z,29.30
2022-08-21T08:07:52.784Z,29.66
2022-08-21T08:10:21.296Z,29.66
2022-08-21T08:12:50.330Z,30.06
2022-08-21T08:15:20.341Z,30.83
2022-08-21T08:17:49.329Z,31.21
2022-08-21T08:20:19.216Z,31.83
2022-08-21T08:22:50.063Z,31.79
2022-08-21T08:25:31.827Z,32.16
2022-08-21T08:28:16.211Z,32.38
2022-08-21T08:30:46.794Z,32.90
2022-08-21T08:33:15.331Z,33.32
2022-08-21T08:35:44.268Z,33.83
2022-08-21T08:38:12.674Z,34.48
2022-08-21T08:40:48.414Z,36.36
2022-08-21T08:43:16.875Z,37.35
2022-08-21T08:45:49.029Z,38.97
2022-08-21T08:48:29.126Z,39.58
2022-08-21T08:50:59.540Z,39.08
2022-08-21T08:53:28.224Z,40.33
2022-08-21T08:55:58.126Z,39.99
2022-08-21T08:58:29.571Z,39.40
2022-08-21T09:00:58.639Z,38.98
2022-08-21T09:03:28.072Z,39.33
2022-08-21T09:05:58.808Z,39.76
2022-08-21T09:08:45.742Z,40.09
2022-08-21T09:11:23.154Z,40.04
2022-08-21T09:13:57.240Z,40.75
2022-08-21T09:16:32.067Z,41.40
2022-08-21T09:19:06.101Z,42.20
2022-08-21T09:21:42.087Z,42.93
2022-08-21T09:24:24.305Z,42.19
2022-08-21T09:27:00.938Z,41.76
2022-08-21T09:29:32.898Z,41.59
2022-08-21T09:32:01.044Z,41.16
2022-08-21T09:34:32.274Z,41.76
2022-08-21T09:37:00.925Z,42.23
2022-08-21T09:39:31.744Z,42.52
2022-08-21T09:42:03.978Z,42.02
2022-08-21T09:44:34.514Z,40.88
2022-08-21T09:47:03.378Z,40.91
2022-08-21T09:49:32.718Z,39.99
2022-08-21T09:52:01.643Z,39.26
2022-08-21T09:54:33.015Z,39.01
2022-08-21T09:57:25.789Z,39.25
2022-08-21T09:59:54.065Z,40.32
2022-08-21T10:02:27.743Z,41.43
2022-08-21T10:04:57.799Z,40.97
2022-08-21T10:07:28.146Z,40.87
2022-08-21T10:10:05.631Z,40.79
2022-08-21T10:12:44.624Z,39.80
2022-08-21T10:15:22.038Z,38.74
2022-08-21T10:18:01.765Z,37.75
2022-08-21T10:20:36.233Z,36.68
2022-08-21T10:23:11.136Z,35.98
2022-08-21T10:25:50.444Z,35.13
2022-08-21T10:28:35.144Z,34.76
2022-08-21T10:31:12.780Z,34.31
2022-08-21T10:33:45.972Z,33.92
2022-08-21T10:36:17.169Z,33.49
2022-08-21T10:39:36.696Z,33.44
2022-08-21T10:42:17.869Z,33.01
2022-08-21T10:44:56.841Z,32.91
2022-08-21T10:47:33.123Z,32.81
2022-08-21T10:50:09.859Z,32.56
2022-08-21T10:52:55.748Z,32.55
2022-08-21T10:55:27.773Z,32.44
2022-08-21T10:58:00.549Z,32.35
2022-08-21T11:00:34.089Z,31.82
2022-08-21T11:03:06.680Z,31.20
2022-08-21T11:05:38.399Z,31.10
2022-08-21T11:08:09.683Z,31.20
2022-08-21T11:10:44.576Z,31.25
2022-08-21T11:13:31.262Z,31.17
2022-08-21T11:16:06.008Z,31.37
2022-08-21T11:18:36.903Z,31.05
2022-08-21T11:21:21.988Z,31.37
2022-08-21T11:23:54.994Z,31.52
2022-08-21T11:26:27.313Z,31.51
2022-08-21T11:28:58.700Z,31.71
2022-08-21T11:31:38.971Z,32.04
2022-08-21T11:34:15.204Z,32.20
2022-08-21T11:36:48.990Z,31.90
2022-08-21T11:39:23.511Z,31.64
2022-08-21T11:41:56.583Z,31.69
2022-08-21T11:44:35.657Z,31.87
2022-08-21T11:47:11.767Z,31.64
2022-08-21T11:49:52.267Z,31.81
2022-08-21T11:52:25.231Z,31.89
2022-08-21T11:54:59.573Z,31.93
2022-08-21T11:57:31.068Z,31.69
2022-08-21T12:00:05.962Z,31.42
2022-08-21T12:02:38.504Z,31.16
2022-08-21T12:05:09.584Z,31.06
2022-08-21T12:07:39.093Z,31.94
2022-08-21T12:10:10.293Z,31.38
2022-08-21T12:12:40.273Z,31.02
2022-08-21T12:15:27.834Z,31.68
2022-08-21T12:18:00.568Z,31.46
2022-08-21T12:20:50.206Z,31.70
2022-08-21T12:23:28.072Z,31.30
2022-08-21T12:26:16.547Z,31.70
2022-08-21T12:28:44.955Z,30.97
2022-08-21T12:31:24.899Z,31.51
2022-08-21T12:33:57.965Z,31.37
2022-08-21T12:36:38.808Z,31.46
2022-08-21T12:39:14.008Z,31.52
2022-08-21T12:41:48.043Z,31.43
2022-08-21T12:44:18.379Z,31.28
2022-08-21T12:46:51.175Z,31.56
2022-08-21T12:49:26.755Z,31.46
2022-08-21T12:51:58.287Z,31.29
2022-08-21T12:54:30.197Z,30.90
2022-08-21T12:57:00.803Z,30.37
2022-08-21T12:59:29.802Z,29.75
2022-08-21T13:01:59.413Z,29.86
2022-08-21T13:04:37.066Z,29.79
2022-08-21T13:07:08.589Z,29.00
2022-08-21T13:09:36.657Z,28.13
2022-08-21T13:12:09.431Z,28.05
2022-08-21T13:14:45.828Z,28.14
2022-08-21T13:17:23.286Z,27.43
2022-08-21T13:20:01.430Z,27.62
2022-08-21T13:22:35.182Z,27.02
2022-08-21T13:25:07.137Z,26.62
2022-08-21T13:27:36.046Z,26.64
2022-08-21T13:30:08.607Z,27.03
2022-08-21T13:32:39.197Z,26.74
2022-08-21T13:35:18.687Z,26.99
2022-08-21T13:37:48.794Z,26.55
2022-08-21T13:40:19.851Z,26.50
2022-08-21T13:42:49.376Z,26.18
2022-08-21T13:45:26.227Z,26.40
2022-08-21T13:47:55.395Z,26.02
2022-08-21T13:50:26.855Z,26.17
2022-08-21T13:53:02.098Z,26.26
2022-08-21T13:55:39.782Z,26.36
2022-08-21T13:58:08.221Z,25.86
2022-08-21T14:00:45.045Z,26.06
2022-08-21T14:03:17.788Z,26.27
2022-08-21T14:05:48.547Z,26.15
2022-08-21T14:08:21.164Z,25.93
2022-08-21T14:10:59.248Z,25.67
2022-08-21T14:13:38.252Z,25.86
2022-08-21T14:16:15.355Z,25.81
2022-08-21T14:18:52.996Z,25.82
2022-08-21T14:21:33.417Z,25.91
2022-08-21T14:24:09.419Z,25.63
2022-08-21T14:26:40.035Z,25.26
2022-08-21T14:29:10.716Z,25.33
2022-08-21T14:31:40.329Z,25.05
2022-08-21T14:34:19.181Z,25.35
2022-08-21T14:36:52.251Z,25.27
2022-08-21T14:39:20.376Z,24.83
2022-08-21T14:41:49.950Z,24.88
2022-08-21T14:44:19.802Z,24.81
2022-08-21T14:46:56.031Z,24.77
2022-08-21T14:49:28.778Z,25.02
2022-08-21T14:51:59.460Z,24.98
2022-08-21T14:54:31.748Z,24.73
2022-08-21T14:57:02.042Z,24.81
2022-08-21T14:59:30.521Z,24.51
2022-08-21T15:01:58.655Z,24.58
2022-08-21T15:04:26.775Z,24.44
2022-08-21T15:06:55.131Z,24.45
2022-08-21T15:09:24.911Z,24.81
2022-08-21T15:11:53.643Z,24.54
2022-08-21T15:14:24.262Z,24.81
2022-08-21T15:16:53.148Z,24.54
2022-08-21T15:19:21.237Z,24.30
2022-08-21T15:21:49.777Z,24.17
2022-08-21T15:24:18.134Z,24.23
2022-08-21T15:26:47.863Z,24.57
2022-08-21T15:29:22.490Z,24.13
2022-08-21T15:31:56.781Z,24.58
2022-08-21T15:34:27.285Z,24.06
2022-08-21T15:36:56.967Z,23.87
2022-08-21T15:39:31.396Z,23.92
2022-08-21T15:42:06.181Z,24.06
2022-08-21T15:44:40.225Z,23.86
2022-08-21T15:47:08.716Z,23.62
2022-08-21T15:49:36.811Z,23.44
2022-08-21T15:52:05.116Z,23.58
2022-08-21T15:54:33.261Z,23.62
2022-08-21T15:57:02.917Z,23.81
2022-08-21T15:59:34.748Z,23.79
2022-08-21T16:02:02.938Z,23.19
2022-08-21T16:04:31.120Z,23.07
2022-08-21T16:07:06.445Z,22.87
2022-08-21T16:09:35.874Z,23.03
2022-08-21T16:12:06.078Z,23.48
2022-08-21T16:14:37.217Z,23.45
2022-08-21T16:17:05.987Z,23.97
2022-08-21T16:19:34.555Z,23.25
2022-08-21T16:22:02.805Z,23.00
2022-08-21T16:24:31.184Z,23.01
2022-08-21T16:26:59.337Z,23.02
2022-08-21T16:29:36.213Z,23.62
2022-08-21T16:32:06.569Z,23.34
2022-08-21T16:34:35.253Z,22.88
2022-08-21T16:37:03.504Z,22.62
2022-08-21T16:39:32.093Z,22.46
2022-08-21T16:42:00.292Z,22.44
2022-08-21T16:44:30.166Z,22.80
2022-08-21T16:47:00.999Z,23.21
2022-08-21T16:49:29.530Z,22.91
2022-08-21T16:51:58.056Z,22.81
2022-08-21T16:54:26.575Z,22.76
2022-08-21T16:56:55.116Z,22.71
2022-08-21T16:59:23.333Z,22.64
2022-08-21T17:01:52.302Z,22.77
2022-08-21T17:04:21.868Z,22.88
2022-08-21T17:06:50.053Z,22.57
2022-08-21T17:09:18.308Z,22.49
2022-08-21T17:11:49.762Z,22.76
2022-08-21T17:14:20.701Z,22.73
2022-08-21T17:16:51.840Z,22.68
2022-08-21T17:19:21.806Z,22.60
2022-08-21T17:21:50.178Z,22.21
2022-08-21T17:24:18.352Z,22.10
2022-08-21T17:26:46.763Z,22.20
2022-08-21T17:29:16.518Z,22.22
2022-08-21T17:31:45.643Z,22.14
2022-08-21T17:34:16.132Z,22.13
2022-08-21T17:36:45.751Z,22.18
2022-08-21T17:39:21.867Z,21.77
2022-08-21T17:41:52.416Z,21.78
2022-08-21T17:44:25.939Z,21.82
2022-08-21T17:46:54.340Z,21.81
2022-08-21T17:49:22.451Z,21.76
2022-08-21T17:51:52.063Z,22.19
2022-08-21T17:54:20.462Z,21.75
2022-08-21T17:56:48.948Z,21.86
2022-08-21T17:59:17.067Z,21.85
2022-08-21T18:01:47.234Z,21.98
2022-08-21T18:04:16.486Z,22.08
2022-08-21T18:06:44.884Z,21.84
2022-08-21T18:09:14.888Z,21.99
2022-08-21T18:11:43.789Z,21.66
2022-08-21T18:14:12.280Z,21.39
2022-08-21T18:16:40.659Z,21.37
2022-08-21T18:19:10.550Z,21.77
2022-08-21T18:21:38.694Z,21.29
2022-08-21T18:24:07.598Z,21.40
2022-08-21T18:26:39.130Z,21.82
2022-08-21T18:29:09.506Z,21.72
2022-08-21T18:31:39.173Z,21.71
2022-08-21T18:34:12.218Z,22.00
2022-08-21T18:36:40.652Z,21.58
2022-08-21T18:39:34.508Z,21.65
2022-08-21T18:41:59.230Z,22.13
2022-08-21T18:44:29.091Z,22.09
2022-08-21T18:46:59.460Z,22.20
2022-08-21T18:49:27.970Z,22.02
2022-08-21T18:51:57.615Z,22.26
2022-08-21T18:54:26.807Z,22.10
2022-08-21T18:56:55.244Z,22.06
2022-08-21T18:59:25.843Z,22.49
2022-08-21T19:01:55.466Z,21.99
2022-08-21T19:04:42.841Z,22.08
2022-08-21T19:07:13.937Z,21.90
2022-08-21T19:09:42.986Z,21.83
2022-08-21T19:12:14.690Z,22.17
2022-08-21T19:14:44.892Z,22.28
2022-08-21T19:17:14.011Z,22.01
2022-08-21T19:19:42.167Z,21.80
2022-08-21T19:22:11.045Z,21.78
2022-08-21T19:24:39.481Z,21.83
2022-08-21T19:27:18.990Z,21.91
2022-08-21T19:29:48.427Z,22.14
2022-08-21T19:32:17.730Z,21.80
2022-08-21T19:34:46.457Z,21.88
2022-08-21T19:37:16.326Z,22.00
2022-08-21T19:42:34.850Z,21.79
2022-08-21T19:45:04.974Z,22.20
2022-08-21T19:47:33.897Z,21.85
2022-08-21T19:50:17.447Z,22.11
2022-08-21T19:52:46.739Z,21.70
2022-08-21T19:55:19.806Z,21.80
2022-08-21T19:57:47.991Z,21.77
2022-08-21T20:00:18.204Z,22.08
2022-08-21T20:02:47.878Z,21.63
2022-08-21T20:08:23.557Z,21.61
2022-08-21T20:10:57.993Z,21.86
2022-08-21T20:13:26.778Z,21.60
2022-08-21T20:15:56.370Z,21.77
2022-08-21T20:18:26.917Z,21.46
2022-08-21T20:20:55.814Z,21.65
2022-08-21T20:23:29.805Z,21.33
2022-08-21T20:25:59.418Z,21.44
2022-08-21T20:28:28.206Z,21.35
2022-08-21T20:30:58.482Z,21.76
2022-08-21T20:33:27.070Z,21.39
2022-08-21T20:35:55.482Z,21.41
2022-08-21T20:41:17.904Z,21.36
2022-08-21T20:43:59.312Z,21.58
2022-08-21T20:46:30.608Z,21.90
2022-08-21T20:48:59.542Z,21.47
2022-08-21T20:51:33.196Z,22.09
2022-08-21T20:54:07.297Z,22.21
2022-08-21T20:56:41.032Z,22.32
2022-08-21T20:59:31.011Z,22.25
2022-08-21T21:02:03.508Z,22.11
2022-08-21T21:04:45.104Z,22.30
2022-08-21T21:07:18.088Z,22.29
2022-08-21T21:09:48.905Z,22.21
2022-08-21T21:12:27.722Z,22.29
2022-08-21T21:14:59.721Z,22.40
2022-08-21T21:17:35.008Z,22.55
2022-08-21T21:20:10.216Z,22.45
2022-08-21T21:22:43.295Z,22.49
2022-08-21T21:25:15.062Z,22.54
2022-08-21T21:27:48.970Z,22.62
2022-08-21T21:30:21.001Z,22.49
2022-08-21T21:32:50.519Z,22.54
2022-08-21T21:38:12.759Z,22.73
2022-08-21T21:40:49.344Z,22.85
2022-08-21T21:43:27.016Z,22.89
2022-08-21T21:46:11.015Z,22.99
2022-08-21T21:48:50.571Z,22.88
2022-08-21T21:51:22.722Z,22.83
2022-08-21T21:53:55.665Z,22.96
2022-08-21T21:59:24.664Z,23.01
2022-08-21T22:02:03.319Z,22.95
2022-08-21T22:04:38.430Z,23.05
2022-08-21T22:07:10.300Z,23.05
2022-08-21T22:09:44.909Z,23.27
2022-08-21T22:12:29.178Z,23.70
2022-08-21T22:14:57.476Z,22.94
2022-08-21T22:17:35.789Z,23.48
2022-08-21T22:20:09.046Z,23.30
2022-08-21T22:22:41.710Z,23.14
2022-08-21T22:25:16.944Z,23.39
2022-08-21T22:27:46.912Z,23.10
2022-08-21T22:30:19.127Z,23.05
2022-08-21T22:32:50.525Z,22.95
2022-08-21T22:35:22.254Z,23.03
2022-08-21T22:37:52.736Z,22.86
2022-08-21T22:43:20.498Z,23.12
2022-08-21T22:45:58.763Z,23.17
2022-08-21T22:48:29.838Z,22.94
2022-08-21T22:51:04.538Z,23.13
2022-08-21T22:53:36.968Z,23.03
2022-08-21T22:56:07.648Z,22.90
2022-08-21T22:58:38.741Z,22.90
2022-08-21T23:01:34.790Z,23.37
2022-08-21T23:04:18.170Z,23.21
2022-08-21T23:06:52.642Z,23.02
2022-08-21T23:09:30.626Z,22.99
2022-08-21T23:12:01.025Z,22.85
2022-08-21T23:14:30.482Z,22.80
2022-08-21T23:17:01.192Z,23.00
2022-08-21T23:19:34.448Z,23.70
2022-08-21T23:22:21.130Z,23.22
2022-08-21T23:25:01.276Z,23.15
2022-08-21T23:27:41.444Z,23.21
2022-08-21T23:30:12.411Z,22.99
2022-08-21T23:32:55.914Z,23.31
2022-08-21T23:35:51.153Z,23.25
2022-08-21T23:38:33.072Z,23.25
2022-08-21T23:44:01.253Z,23.42
2022-08-21T23:46:43.742Z,23.59
2022-08-21T23:49:21.970Z,23.82
2022-08-21T23:52:04.424Z,23.82
2022-08-21T23:54:44.589Z,23.74
2022-08-21T23:57:23.225Z,23.59
